M\v Black Rhino — V7TR7 — position and weather

sailwx.info

Track history (hours):
 
Tides and Currents Weather Stations Pressure Air Temp Water Temp Dewpoint Dewpoint Depression Visibility Wind Speed Wind Dir Waves Ship Positions

M\v Black Rhino

Last reported at 2014-Nov-27 11:31 UTC. Time now 2014-Nov-27 11:44 UTC.
Position S 29°52' E 031°03'.

Length 100 m; draft 4 m.

Type: Cargo ship. MMSI: 538090408.

Date/timePositionNaut miles runAvg speedWind from/ knotsBaromVisibWave heightAir tempDewpointWater temp
2014-Nov-27 11:31S 29°52' E 031°03'0 0.0
2014-Nov-27 10:33S 29°52' E 031°03'0 0.0
2014-Nov-27 09:33S 29°52' E 031°03'0 0.0
2014-Nov-27 08:33S 29°52' E 031°03'0 0.0
2014-Nov-27 07:33S 29°52' E 031°03'0 0.0
2014-Nov-27 06:33S 29°52' E 031°03'0 0.0
2014-Nov-27 05:33S 29°52' E 031°03'0 0.0
2014-Nov-27 04:33S 29°52' E 031°03'0 0.0
2014-Nov-27 03:33S 29°52' E 031°03'0 0.0
2014-Nov-27 02:33S 29°52' E 031°03'0 0.0
2014-Nov-27 01:33S 29°52' E 031°03'0 0.0
2014-Nov-27 00:33S 29°52' E 031°03'0 0.0
2014-Nov-26 23:33S 29°52' E 031°03'0 0.0
2014-Nov-26 22:33S 29°52' E 031°03'0 0.0
2014-Nov-26 21:33S 29°52' E 031°03'0 0.0
2014-Nov-26 20:33S 29°52' E 031°03'0 0.0
2014-Nov-26 19:33S 29°52' E 031°03'0 0.0
2014-Nov-26 18:33S 29°52' E 031°03'0 0.0
2014-Nov-26 17:33S 29°52' E 031°03'0 0.0
2014-Nov-26 16:33S 29°52' E 031°03'0 0.0
2014-Nov-26 15:33S 29°52' E 031°03'0 0.0
2014-Nov-26 14:33S 29°52' E 031°03'0 0.0
2014-Nov-26 13:33S 29°52' E 031°03'0 0.0
2014-Nov-26 12:33S 29°52' E 031°03'0 0.0
2014-Nov-26 11:33S 29°52' E 031°03'0 0.0
2014-Nov-26 10:33S 29°52' E 031°03'0 0.0
2014-Nov-26 09:33S 29°52' E 031°03'0 0.0
2014-Nov-26 08:33S 29°52' E 031°03'0 0.0
2014-Nov-26 07:33S 29°52' E 031°03'0 0.0
2014-Nov-26 06:33S 29°52' E 031°03'0 0.0
2014-Nov-26 05:33S 29°52' E 031°03'4 3.7
2014-Nov-26 04:33S 29°49' E 031°05'3 3.2
2014-Nov-26 03:33S 29°46' E 031°06'0 0.0
2014-Nov-26 02:33S 29°46' E 031°06'0 0.0
2014-Nov-26 01:33S 29°46' E 031°06'0 0.0
2014-Nov-26 00:33S 29°46' E 031°06'0 0.0
2014-Nov-25 23:33S 29°46' E 031°06'0 0.0
2014-Nov-25 22:33S 29°46' E 031°06'0 0.0
2014-Nov-25 21:33S 29°46' E 031°06'1 1.0
2014-Nov-25 20:33S 29°46' E 031°07'8 8.4
2014-Nov-25 19:33S 29°42' E 031°15'1312.6
2014-Nov-25 18:33S 29°33' E 031°26'  
2014-Nov-21 12:22S 29°24' E 031°38'910.8
2014-Nov-21 11:33S 29°30' E 031°31'1110.8
2014-Nov-21 10:33S 29°37' E 031°21'1111.0
2014-Nov-21 09:33S 29°45' E 031°12'1111.0
2014-Nov-21 08:33S 29°52' E 031°03'0 0.5
2014-Nov-21 07:32S 29°52' E 031°03'0 0.0
2014-Nov-21 06:32S 29°52' E 031°03'0 0.0
2014-Nov-21 05:32S 29°52' E 031°03'0 0.0
2014-Nov-21 04:32S 29°52' E 031°03'0 0.0
2014-Nov-21 03:32S 29°52' E 031°03'0 0.0
2014-Nov-21 02:32S 29°52' E 031°03'0 0.0
2014-Nov-21 01:32S 29°52' E 031°03'0 0.0
2014-Nov-21 00:32S 29°52' E 031°03'0 0.0
2014-Nov-20 23:32S 29°52' E 031°03'0 0.0
2014-Nov-20 22:32S 29°52' E 031°03'0 0.0
2014-Nov-20 21:32S 29°52' E 031°03'0 0.0
2014-Nov-20 20:32S 29°52' E 031°03'0 0.0
2014-Nov-20 19:26S 29°52' E 031°03'0 0.0
2014-Nov-20 18:32S 29°52' E 031°03'0 0.0
2014-Nov-20 17:32S 29°52' E 031°03'0 0.0
2014-Nov-20 16:32S 29°52' E 031°03'0 0.0
2014-Nov-20 15:32S 29°52' E 031°03'0 0.0
2014-Nov-20 14:20S 29°52' E 031°03'0 0.0
2014-Nov-20 13:32S 29°52' E 031°03'0 0.0
2014-Nov-20 12:32S 29°52' E 031°03'0 0.0
2014-Nov-20 11:32S 29°52' E 031°03'0 0.0
2014-Nov-20 10:26S 29°52' E 031°03'0 0.0
2014-Nov-20 09:32S 29°52' E 031°03'0 0.0
2014-Nov-20 08:32S 29°52' E 031°03'0 0.0
2014-Nov-20 07:32S 29°52' E 031°03'0 0.0
2014-Nov-20 06:32S 29°52' E 031°03'0 0.0
2014-Nov-20 05:32S 29°52' E 031°03'0 0.0
2014-Nov-20 04:32S 29°52' E 031°03'0 0.0
2014-Nov-20 03:32S 29°52' E 031°03'0 0.0
2014-Nov-20 02:32S 29°52' E 031°03'0 0.0
2014-Nov-20 01:32S 29°52' E 031°03'0 0.0
2014-Nov-20 00:26S 29°52' E 031°03'0 0.0
2014-Nov-19 23:32S 29°52' E 031°03'0 0.0
2014-Nov-19 22:32S 29°52' E 031°03'0 0.0
2014-Nov-19 21:26S 29°52' E 031°03'0 0.0
2014-Nov-19 20:32S 29°52' E 031°03'0 0.0
2014-Nov-19 19:32S 29°52' E 031°03'0 0.0
2014-Nov-19 18:26S 29°52' E 031°03'0 0.0
2014-Nov-19 17:32S 29°52' E 031°03'0 0.0
2014-Nov-19 16:32S 29°52' E 031°03'0 0.0
2014-Nov-19 15:32S 29°52' E 031°03'0 0.0
2014-Nov-19 14:32S 29°52' E 031°03'0 0.0
2014-Nov-19 13:26S 29°52' E 031°03'0 0.0
2014-Nov-19 12:32S 29°52' E 031°03'0 0.0
2014-Nov-19 11:32S 29°52' E 031°03'0 0.0
2014-Nov-19 10:32S 29°52' E 031°03'0 0.0
2014-Nov-19 09:32S 29°52' E 031°03'0 0.0
2014-Nov-19 08:32S 29°52' E 031°03'0 0.0
2014-Nov-19 07:32S 29°52' E 031°03'0 0.0
2014-Nov-19 06:32S 29°52' E 031°03'0 0.0
2014-Nov-19 05:32S 29°52' E 031°03'0 0.0
2014-Nov-19 04:32S 29°52' E 031°03'0 0.0
2014-Nov-19 03:32S 29°52' E 031°03'0 0.0
2014-Nov-19 02:32S 29°52' E 031°03'0 0.0
2014-Nov-19 01:32S 29°52' E 031°03'0 0.0
2014-Nov-19 00:32S 29°52' E 031°03'0 0.0
2014-Nov-18 23:32S 29°52' E 031°03'0 0.0
2014-Nov-18 22:32S 29°52' E 031°03'0 0.0
2014-Nov-18 21:32S 29°52' E 031°03'0 0.0
2014-Nov-18 20:26S 29°52' E 031°03'0 0.0
2014-Nov-18 19:32S 29°52' E 031°03'0 0.0
2014-Nov-18 18:32S 29°52' E 031°03'5 5.5
2014-Nov-18 17:33S 29°48' E 031°06'3 2.5
2014-Nov-18 16:28S 29°45' E 031°06'0 0.0
2014-Nov-18 15:22S 29°45' E 031°06'0 0.0
2014-Nov-18 14:28S 29°45' E 031°06'0 0.0
2014-Nov-18 13:28S 29°45' E 031°06'0 0.0
2014-Nov-18 12:28S 29°45' E 031°06'0 0.0
2014-Nov-18 11:28S 29°45' E 031°06'0 0.0
2014-Nov-18 10:28S 29°45' E 031°06'0 0.0
2014-Nov-18 09:28S 29°45' E 031°06'0 0.0
2014-Nov-18 08:28S 29°45' E 031°06'0 0.0
2014-Nov-18 07:28S 29°45' E 031°06'0 0.0
2014-Nov-18 06:22S 29°45' E 031°06'0 0.0
2014-Nov-18 05:22S 29°45' E 031°06'0 0.0
2014-Nov-18 04:28S 29°45' E 031°06'0 0.0
2014-Nov-18 03:28S 29°45' E 031°06'0 0.0
2014-Nov-18 02:28S 29°45' E 031°06'0 0.0
2014-Nov-18 01:28S 29°45' E 031°06'0 0.0
2014-Nov-18 00:28S 29°45' E 031°06'0 0.0
2014-Nov-17 23:28S 29°45' E 031°06'0 0.0
2014-Nov-17 22:28S 29°45' E 031°06'0 0.0
2014-Nov-17 21:28S 29°45' E 031°06'0 0.0
2014-Nov-17 20:28S 29°45' E 031°06'0 0.0
2014-Nov-17 19:28S 29°45' E 031°06'0 0.0
2014-Nov-17 18:28S 29°45' E 031°06'0 0.0
2014-Nov-17 17:28S 29°45' E 031°06'0 0.0
2014-Nov-17 16:28S 29°45' E 031°06'0 0.1
2014-Nov-17 15:28S 29°45' E 031°06'0 0.1
2014-Nov-17 14:22S 29°45' E 031°06'0 0.0
2014-Nov-17 13:16S 29°45' E 031°06'0 0.0
2014-Nov-17 12:28S 29°45' E 031°06'  
Track history (hours):
 
Tides and Currents Weather Stations Pressure Air Temp Water Temp Dewpoint Dewpoint Depression Visibility Wind Speed Wind Dir Waves Ship Positions

M\v Black Rhino

Last reported at 2014-Nov-27 11:31 UTC. Time now 2014-Nov-27 11:44 UTC.
Position S 29°52' E 031°03'.

Length 100 m; draft 4 m.

Type: Cargo ship. MMSI: 538090408.

Date/timePositionNaut miles runAvg speedWind from/ knotsBaromVisibWave heightAir tempDewpointWater temp
2014-Nov-27 11:31S 29°52' E 031°03'0 0.0
2014-Nov-27 10:33S 29°52' E 031°03'0 0.0
2014-Nov-27 09:33S 29°52' E 031°03'0 0.0
2014-Nov-27 08:33S 29°52' E 031°03'0 0.0
2014-Nov-27 07:33S 29°52' E 031°03'0 0.0
2014-Nov-27 06:33S 29°52' E 031°03'0 0.0
2014-Nov-27 05:33S 29°52' E 031°03'0 0.0
2014-Nov-27 04:33S 29°52' E 031°03'0 0.0
2014-Nov-27 03:33S 29°52' E 031°03'0 0.0
2014-Nov-27 02:33S 29°52' E 031°03'0 0.0
2014-Nov-27 01:33S 29°52' E 031°03'0 0.0
2014-Nov-27 00:33S 29°52' E 031°03'0 0.0
2014-Nov-26 23:33S 29°52' E 031°03'0 0.0
2014-Nov-26 22:33S 29°52' E 031°03'0 0.0
2014-Nov-26 21:33S 29°52' E 031°03'0 0.0
2014-Nov-26 20:33S 29°52' E 031°03'0 0.0
2014-Nov-26 19:33S 29°52' E 031°03'0 0.0
2014-Nov-26 18:33S 29°52' E 031°03'0 0.0
2014-Nov-26 17:33S 29°52' E 031°03'0 0.0
2014-Nov-26 16:33S 29°52' E 031°03'0 0.0
2014-Nov-26 15:33S 29°52' E 031°03'0 0.0
2014-Nov-26 14:33S 29°52' E 031°03'0 0.0
2014-Nov-26 13:33S 29°52' E 031°03'0 0.0
2014-Nov-26 12:33S 29°52' E 031°03'0 0.0
2014-Nov-26 11:33S 29°52' E 031°03'0 0.0
2014-Nov-26 10:33S 29°52' E 031°03'0 0.0
2014-Nov-26 09:33S 29°52' E 031°03'0 0.0
2014-Nov-26 08:33S 29°52' E 031°03'0 0.0
2014-Nov-26 07:33S 29°52' E 031°03'0 0.0
2014-Nov-26 06:33S 29°52' E 031°03'0 0.0
2014-Nov-26 05:33S 29°52' E 031°03'4 3.7
2014-Nov-26 04:33S 29°49' E 031°05'3 3.2
2014-Nov-26 03:33S 29°46' E 031°06'0 0.0
2014-Nov-26 02:33S 29°46' E 031°06'0 0.0
2014-Nov-26 01:33S 29°46' E 031°06'0 0.0
2014-Nov-26 00:33S 29°46' E 031°06'0 0.0
2014-Nov-25 23:33S 29°46' E 031°06'0 0.0
2014-Nov-25 22:33S 29°46' E 031°06'0 0.0
2014-Nov-25 21:33S 29°46' E 031°06'1 1.0
2014-Nov-25 20:33S 29°46' E 031°07'8 8.4
2014-Nov-25 19:33S 29°42' E 031°15'1312.6
2014-Nov-25 18:33S 29°33' E 031°26'  
2014-Nov-21 12:22S 29°24' E 031°38'910.8
2014-Nov-21 11:33S 29°30' E 031°31'1110.8
2014-Nov-21 10:33S 29°37' E 031°21'1111.0
2014-Nov-21 09:33S 29°45' E 031°12'1111.0
2014-Nov-21 08:33S 29°52' E 031°03'0 0.5
2014-Nov-21 07:32S 29°52' E 031°03'0 0.0
2014-Nov-21 06:32S 29°52' E 031°03'0 0.0
2014-Nov-21 05:32S 29°52' E 031°03'0 0.0
2014-Nov-21 04:32S 29°52' E 031°03'0 0.0
2014-Nov-21 03:32S 29°52' E 031°03'0 0.0
2014-Nov-21 02:32S 29°52' E 031°03'0 0.0
2014-Nov-21 01:32S 29°52' E 031°03'0 0.0
2014-Nov-21 00:32S 29°52' E 031°03'0 0.0
2014-Nov-20 23:32S 29°52' E 031°03'0 0.0
2014-Nov-20 22:32S 29°52' E 031°03'0 0.0
2014-Nov-20 21:32S 29°52' E 031°03'0 0.0
2014-Nov-20 20:32S 29°52' E 031°03'0 0.0
2014-Nov-20 19:26S 29°52' E 031°03'0 0.0
2014-Nov-20 18:32S 29°52' E 031°03'0 0.0
2014-Nov-20 17:32S 29°52' E 031°03'0 0.0
2014-Nov-20 16:32S 29°52' E 031°03'0 0.0
2014-Nov-20 15:32S 29°52' E 031°03'0 0.0
2014-Nov-20 14:20S 29°52' E 031°03'0 0.0
2014-Nov-20 13:32S 29°52' E 031°03'0 0.0
2014-Nov-20 12:32S 29°52' E 031°03'0 0.0
2014-Nov-20 11:32S 29°52' E 031°03'0 0.0
2014-Nov-20 10:26S 29°52' E 031°03'0 0.0
2014-Nov-20 09:32S 29°52' E 031°03'0 0.0
2014-Nov-20 08:32S 29°52' E 031°03'0 0.0
2014-Nov-20 07:32S 29°52' E 031°03'0 0.0
2014-Nov-20 06:32S 29°52' E 031°03'0 0.0
2014-Nov-20 05:32S 29°52' E 031°03'0 0.0
2014-Nov-20 04:32S 29°52' E 031°03'0 0.0
2014-Nov-20 03:32S 29°52' E 031°03'0 0.0
2014-Nov-20 02:32S 29°52' E 031°03'0 0.0
2014-Nov-20 01:32S 29°52' E 031°03'0 0.0
2014-Nov-20 00:26S 29°52' E 031°03'0 0.0
2014-Nov-19 23:32S 29°52' E 031°03'0 0.0
2014-Nov-19 22:32S 29°52' E 031°03'0 0.0
2014-Nov-19 21:26S 29°52' E 031°03'0 0.0
2014-Nov-19 20:32S 29°52' E 031°03'0 0.0
2014-Nov-19 19:32S 29°52' E 031°03'0 0.0
2014-Nov-19 18:26S 29°52' E 031°03'0 0.0
2014-Nov-19 17:32S 29°52' E 031°03'0 0.0
2014-Nov-19 16:32S 29°52' E 031°03'0 0.0
2014-Nov-19 15:32S 29°52' E 031°03'0 0.0
2014-Nov-19 14:32S 29°52' E 031°03'0 0.0
2014-Nov-19 13:26S 29°52' E 031°03'0 0.0
2014-Nov-19 12:32S 29°52' E 031°03'0 0.0
2014-Nov-19 11:32S 29°52' E 031°03'0 0.0
2014-Nov-19 10:32S 29°52' E 031°03'0 0.0
2014-Nov-19 09:32S 29°52' E 031°03'0 0.0
2014-Nov-19 08:32S 29°52' E 031°03'0 0.0
2014-Nov-19 07:32S 29°52' E 031°03'0 0.0
2014-Nov-19 06:32S 29°52' E 031°03'0 0.0
2014-Nov-19 05:32S 29°52' E 031°03'0 0.0
2014-Nov-19 04:32S 29°52' E 031°03'0 0.0
2014-Nov-19 03:32S 29°52' E 031°03'0 0.0
2014-Nov-19 02:32S 29°52' E 031°03'0 0.0
2014-Nov-19 01:32S 29°52' E 031°03'0 0.0
2014-Nov-19 00:32S 29°52' E 031°03'0 0.0
2014-Nov-18 23:32S 29°52' E 031°03'0 0.0
2014-Nov-18 22:32S 29°52' E 031°03'0 0.0
2014-Nov-18 21:32S 29°52' E 031°03'0 0.0
2014-Nov-18 20:26S 29°52' E 031°03'0 0.0
2014-Nov-18 19:32S 29°52' E 031°03'0 0.0
2014-Nov-18 18:32S 29°52' E 031°03'5 5.5
2014-Nov-18 17:33S 29°48' E 031°06'3 2.5
2014-Nov-18 16:28S 29°45' E 031°06'0 0.0
2014-Nov-18 15:22S 29°45' E 031°06'0 0.0
2014-Nov-18 14:28S 29°45' E 031°06'0 0.0
2014-Nov-18 13:28S 29°45' E 031°06'0 0.0
2014-Nov-18 12:28S 29°45' E 031°06'0 0.0
2014-Nov-18 11:28S 29°45' E 031°06'0 0.0
2014-Nov-18 10:28S 29°45' E 031°06'0 0.0
2014-Nov-18 09:28S 29°45' E 031°06'0 0.0
2014-Nov-18 08:28S 29°45' E 031°06'0 0.0
2014-Nov-18 07:28S 29°45' E 031°06'0 0.0
2014-Nov-18 06:22S 29°45' E 031°06'0 0.0
2014-Nov-18 05:22S 29°45' E 031°06'0 0.0
2014-Nov-18 04:28S 29°45' E 031°06'0 0.0
2014-Nov-18 03:28S 29°45' E 031°06'0 0.0
2014-Nov-18 02:28S 29°45' E 031°06'0 0.0
2014-Nov-18 01:28S 29°45' E 031°06'0 0.0
2014-Nov-18 00:28S 29°45' E 031°06'0 0.0
2014-Nov-17 23:28S 29°45' E 031°06'0 0.0
2014-Nov-17 22:28S 29°45' E 031°06'0 0.0
2014-Nov-17 21:28S 29°45' E 031°06'0 0.0
2014-Nov-17 20:28S 29°45' E 031°06'0 0.0
2014-Nov-17 19:28S 29°45' E 031°06'0 0.0
2014-Nov-17 18:28S 29°45' E 031°06'0 0.0
2014-Nov-17 17:28S 29°45' E 031°06'0 0.0
2014-Nov-17 16:28S 29°45' E 031°06'0 0.1
2014-Nov-17 15:28S 29°45' E 031°06'0 0.1
2014-Nov-17 14:22S 29°45' E 031°06'0 0.0
2014-Nov-17 13:16S 29°45' E 031°06'0 0.0
2014-Nov-17 12:28S 29°45' E 031°06'  

Dump ship's entire track history